Time;durP1;ratioP1;P1;durP2;ratioP2;P2;SDS_P1;SDS_P2;PMS_P1;PMS_P2;Temp;Humidity;BMP_temperature;BMP_pressure;BME280_temperature;BME280_humidity;BME280_pressure;Samples;Min_cycle;Max_cycle;Signal;HPM_P1;HPM_P2
2022/04/04 00:02:06;;;;;;;8.02;6.70;;;;;;;1.68;75.37;101305.53;4959024;28;20027;-72
2022/04/04 00:04:32;;;;;;;8.32;7.53;;;;;;;1.57;75.24;101292.09;4952858;28;20780;-68
2022/04/04 00:06:59;;;;;;;7.22;6.72;;;;;;;1.69;75.53;101295.94;4974114;28;20397;-69
2022/04/04 00:09:25;;;;;;;7.63;6.95;;;;;;;1.77;74.62;101296.47;4971031;28;20594;-72
2022/04/04 00:11:51;;;;;;;7.47;6.88;;;;;;;1.79;74.97;101299.88;4968491;28;20396;-70
2022/04/04 00:14:16;;;;;;;8.00;7.28;;;;;;;1.69;74.65;101291.59;4957596;28;20026;-69
2022/04/04 00:16:42;;;;;;;8.20;7.47;;;;;;;1.74;74.96;101280.94;4957986;28;20010;-69
2022/04/04 00:19:07;;;;;;;7.47;6.88;;;;;;;1.74;74.28;101298.38;4953223;28;21076;-70
2022/04/04 00:21:33;;;;;;;7.95;7.25;;;;;;;1.65;74.85;101289.16;4953364;28;20010;-70
2022/04/04 00:23:58;;;;;;;8.55;7.85;;;;;;;1.70;74.57;101285.44;4943484;28;20023;-71
2022/04/04 00:26:23;;;;;;;8.50;7.70;;;;;;;1.54;75.39;101282.66;4949404;28;20712;-71
2022/04/04 00:28:49;;;;;;;8.77;7.55;;;;;;;1.56;75.31;101279.13;4954070;28;20421;-70
2022/04/04 00:31:16;;;;;;;8.02;7.43;;;;;;;1.49;75.70;101274.16;4962922;28;20029;-70
2022/04/04 00:33:41;;;;;;;8.38;7.47;;;;;;;1.45;75.38;101274.34;4949867;28;20518;-71
2022/04/04 00:36:07;;;;;;;9.50;8.00;;;;;;;1.56;75.55;101279.97;4950418;28;20853;-71
2022/04/04 00:38:32;;;;;;;11.63;8.52;;;;;;;1.54;75.05;101276.59;4953586;28;20092;-71
2022/04/04 00:40:58;;;;;;;10.25;9.25;;;;;;;1.57;75.16;101273.84;4948609;28;20511;-70
2022/04/04 00:43:23;;;;;;;14.80;9.75;;;;;;;1.46;75.00;101270.84;4951149;28;20027;-70
2022/04/04 00:45:49;;;;;;;12.07;9.88;;;;;;;1.41;75.25;101268.44;4953278;28;20428;-71
2022/04/04 00:48:14;;;;;;;12.50;9.60;;;;;;;1.42;75.48;101258.84;4969819;28;20022;-71
2022/04/04 00:50:39;;;;;;;11.15;9.25;;;;;;;1.40;75.58;101260.66;4965971;28;20101;-71
2022/04/04 00:53:07;;;;;;;10.85;8.90;;;;;;;1.50;75.66;101261.97;4951663;28;20014;-71
2022/04/04 00:55:32;;;;;;;10.30;9.13;;;;;;;1.36;75.34;101263.41;4932331;28;20007;-70
2022/04/04 00:57:58;;;;;;;10.43;9.32;;;;;;;1.31;75.88;101254.06;4953788;28;20656;-71
2022/04/04 01:00:24;;;;;;;10.57;9.60;;;;;;;1.15;76.09;101249.50;4942832;28;20011;-71
2022/04/04 01:02:49;;;;;;;10.63;9.20;;;;;;;1.20;76.20;101244.94;4958159;28;20603;-71
2022/04/04 01:05:15;;;;;;;11.35;8.48;;;;;;;1.11;76.40;101241.88;4948459;28;20180;-70
2022/04/04 01:07:40;;;;;;;10.27;9.27;;;;;;;1.04;76.69;101238.66;4946048;28;20939;-69
2022/04/04 01:10:06;;;;;;;9.90;8.85;;;;;;;0.98;76.43;101231.97;4950992;28;20023;-71
2022/04/04 01:12:31;;;;;;;9.20;8.35;;;;;;;0.78;77.28;101235.38;4932841;28;20006;-71
2022/04/04 01:14:57;;;;;;;9.38;8.55;;;;;;;0.74;77.44;101227.75;4951132;28;20325;-71
2022/04/04 01:17:24;;;;;;;9.07;8.30;;;;;;;0.74;77.72;101218.16;4949074;28;20033;-71
2022/04/04 01:19:49;;;;;;;9.65;8.75;;;;;;;0.69;77.55;101225.31;4956905;28;20007;-70
2022/04/04 01:22:15;;;;;;;8.68;7.82;;;;;;;0.63;78.13;101221.19;4930664;28;20534;-71
2022/04/04 01:24:40;;;;;;;9.88;8.27;;;;;;;0.67;78.20;101220.16;4946774;28;20907;-71
2022/04/04 01:27:07;;;;;;;9.07;8.27;;;;;;;0.73;77.88;101218.22;4947300;28;20023;-71
2022/04/04 01:29:32;;;;;;;9.65;8.65;;;;;;;0.70;77.84;101220.97;4953876;28;20010;-69
2022/04/04 01:31:58;;;;;;;9.20;8.25;;;;;;;0.60;78.07;101217.88;4961279;28;20535;-70
2022/04/04 01:34:23;;;;;;;9.57;8.52;;;;;;;0.56;78.39;101211.94;4949945;28;20258;-70
2022/04/04 01:36:49;;;;;;;9.20;8.40;;;;;;;0.57;78.33;101205.00;4936611;28;20018;-70
2022/04/04 01:39:14;;;;;;;9.55;8.65;;;;;;;0.61;78.31;101202.19;4937185;28;20026;-69
2022/04/04 01:41:40;;;;;;;9.60;8.68;;;;;;;0.64;77.90;101204.66;4942351;28;20134;-69
2022/04/04 01:44:05;;;;;;;9.23;8.52;;;;;;;0.53;78.23;101209.47;4956609;28;20026;-70
2022/04/04 01:46:31;;;;;;;9.20;8.40;;;;;;;0.60;78.40;101205.69;4954799;28;20705;-70
2022/04/04 01:48:59;;;;;;;9.98;8.90;;;;;;;0.56;78.45;101198.91;4970279;28;20002;-71
2022/04/04 01:51:25;;;;;;;9.02;8.32;;;;;;;0.53;78.70;101193.84;4955273;28;20242;-70
2022/04/04 01:53:50;;;;;;;9.57;8.77;;;;;;;0.53;78.51;101195.59;4971553;28;20776;-70
2022/04/04 01:56:16;;;;;;;8.90;7.93;;;;;;;0.54;78.78;101192.06;4968356;28;20724;-70
2022/04/04 01:58:41;;;;;;;9.25;8.35;;;;;;;0.65;78.62;101187.31;4969984;28;20022;-70
2022/04/04 02:01:17;;;;;;;9.45;8.55;;;;;;;0.63;78.62;101176.09;4954638;28;20132;-69
2022/04/04 02:03:44;;;;;;;9.23;8.48;;;;;;;0.62;78.66;101187.41;4950191;28;20084;-70
2022/04/04 02:06:09;;;;;;;9.07;8.27;;;;;;;0.64;78.69;101177.78;4955586;28;20803;-69
2022/04/04 02:08:35;;;;;;;10.40;8.77;;;;;;;0.71;78.61;101170.59;4951123;28;20091;-70
2022/04/04 02:11:02;;;;;;;9.73;8.77;;;;;;;0.89;78.85;101175.03;4967145;28;20460;-70
2022/04/04 02:13:27;;;;;;;10.50;8.68;;;;;;;0.99;78.89;101167.66;4953655;28;20068;-70
2022/04/04 02:15:53;;;;;;;10.50;9.52;;;;;;;0.88;78.60;101168.13;4956529;28;20014;-69
2022/04/04 02:18:19;;;;;;;10.05;8.98;;;;;;;0.74;79.09;101168.69;4972254;28;20427;-70
2022/04/04 02:20:45;;;;;;;9.68;8.77;;;;;;;0.65;78.65;101156.06;4958096;28;20077;-70
2022/04/04 02:23:10;;;;;;;10.10;9.02;;;;;;;0.61;79.39;101160.53;4966739;28;20019;-70
2022/04/04 02:25:35;;;;;;;10.05;9.18;;;;;;;0.58;79.31;101165.00;4954673;28;20022;-69
2022/04/04 02:28:01;;;;;;;9.45;8.65;;;;;;;0.72;79.45;101151.41;4956024;28;20018;-69
2022/04/04 02:30:26;;;;;;;11.55;8.90;;;;;;;0.71;78.91;101153.19;4959355;28;20595;-70
2022/04/04 02:32:52;;;;;;;9.82;8.98;;;;;;;0.76;78.20;101151.25;4968269;28;20018;-70
2022/04/04 02:35:18;;;;;;;9.80;8.98;;;;;;;0.83;77.84;101144.00;4974978;28;19998;-70
2022/04/04 02:37:44;;;;;;;9.15;8.45;;;;;;;0.77;78.20;101139.88;4972000;28;20030;-67
2022/04/04 02:40:09;;;;;;;9.52;8.68;;;;;;;0.78;77.75;101138.16;4974117;28;20115;-69
2022/04/04 02:42:35;;;;;;;9.60;8.77;;;;;;;0.76;78.03;101137.34;4970320;28;20021;-70
2022/04/04 02:45:00;;;;;;;9.70;8.75;;;;;;;0.65;78.22;101130.84;4970264;28;20030;-70
2022/04/04 02:47:25;;;;;;;11.10;9.10;;;;;;;0.56;78.16;101120.78;4970135;28;20030;-70
2022/04/04 02:49:51;;;;;;;10.07;9.15;;;;;;;0.55;78.54;101119.13;4950632;28;20473;-70
2022/04/04 02:52:16;;;;;;;9.85;8.98;;;;;;;0.55;78.69;101113.91;4968655;28;20015;-69
2022/04/04 02:54:42;;;;;;;10.35;9.20;;;;;;;0.45;79.09;101113.44;4969226;28;20025;-69
2022/04/04 02:57:07;;;;;;;11.98;9.35;;;;;;;0.55;79.05;101103.50;4932952;28;20810;-70
2022/04/04 02:59:33;;;;;;;9.60;8.80;;;;;;;0.49;79.13;101098.53;4949157;28;20015;-70
2022/04/04 03:01:58;;;;;;;10.10;9.23;;;;;;;0.42;79.26;101102.28;4949078;28;20351;-70
2022/04/04 03:04:23;;;;;;;10.27;9.25;;;;;;;0.39;79.09;101089.41;4972322;28;20033;-70
2022/04/04 03:06:49;;;;;;;10.43;9.32;;;;;;;0.37;79.19;101094.69;4964021;28;20336;-69
2022/04/04 03:09:14;;;;;;;10.05;9.15;;;;;;;0.26;79.50;101091.66;4951808;28;20515;-68
2022/04/04 03:11:40;;;;;;;10.45;9.35;;;;;;;0.30;79.28;101088.03;4948665;28;20022;-71
2022/04/04 03:14:05;;;;;;;10.13;9.30;;;;;;;0.22;79.99;101077.91;4950004;28;20023;-72
2022/04/04 03:16:31;;;;;;;10.32;9.43;;;;;;;0.29;79.53;101079.34;4950623;28;20708;-70
2022/04/04 03:18:57;;;;;;;10.55;9.55;;;;;;;0.26;79.58;101076.03;4950407;28;20022;-71
2022/04/04 03:21:22;;;;;;;10.73;9.60;;;;;;;0.17;79.93;101077.28;4961674;28;20032;-69
2022/04/04 03:23:48;;;;;;;10.02;9.07;;;;;;;0.21;80.32;101078.81;4970666;28;20022;-70
2022/04/04 03:26:13;;;;;;;10.30;9.23;;;;;;;0.16;79.93;101073.81;4953957;28;20624;-70
2022/04/04 03:28:39;;;;;;;9.93;9.13;;;;;;;0.30;80.01;101070.66;4939801;28;20269;-71
2022/04/04 03:31:05;;;;;;;10.65;9.70;;;;;;;0.32;79.53;101067.97;4964403;28;20769;-71
2022/04/04 03:33:31;;;;;;;10.55;9.48;;;;;;;0.31;79.75;101061.06;4970163;28;20023;-71
2022/04/04 03:35:58;;;;;;;10.75;9.70;;;;;;;0.18;80.21;101050.31;4972486;28;20948;-70
2022/04/04 03:38:23;;;;;;;9.93;9.05;;;;;;;0.34;80.11;101054.00;4952474;28;20131;-71
2022/04/04 03:40:49;;;;;;;10.90;9.82;;;;;;;0.46;79.96;101054.41;4968629;28;20002;-71
2022/04/04 03:43:14;;;;;;;10.10;9.20;;;;;;;0.52;79.08;101043.72;4970795;28;20057;-72
2022/04/04 03:45:39;;;;;;;10.38;9.35;;;;;;;0.36;79.60;101047.88;4969125;28;20082;-69
2022/04/04 03:48:05;;;;;;;10.88;9.93;;;;;;;0.31;79.76;101048.91;4955333;28;20091;-70
2022/04/04 03:50:30;;;;;;;11.70;9.95;;;;;;;0.31;79.93;101046.31;4961714;28;21101;-71
2022/04/04 03:52:56;;;;;;;11.65;9.80;;;;;;;0.24;80.34;101037.06;4966050;28;20018;-71
2022/04/04 03:55:23;;;;;;;11.93;9.85;;;;;;;0.28;80.50;101033.44;4966631;28;20066;-71
2022/04/04 03:57:48;;;;;;;11.75;10.43;;;;;;;0.23;80.85;101034.53;4956834;28;20092;-69
2022/04/04 04:00:14;;;;;;;11.75;10.65;;;;;;;0.11;81.65;101021.13;4951056;28;20568;-72
2022/04/04 04:02:39;;;;;;;12.45;11.25;;;;;;;0.22;81.39;101023.25;4970508;28;20763;-71
2022/04/04 04:05:05;;;;;;;11.73;10.68;;;;;;;0.25;81.18;101011.88;4951249;28;20038;-71
2022/04/04 04:07:30;;;;;;;11.63;10.52;;;;;;;0.29;81.09;101019.50;4949585;28;20009;-71
2022/04/04 04:09:56;;;;;;;15.50;11.07;;;;;;;0.38;80.59;101017.41;4948731;28;20908;-71
2022/04/04 04:12:21;;;;;;;10.65;9.75;;;;;;;0.49;79.99;101015.19;4931427;28;20014;-71
2022/04/04 04:14:48;;;;;;;11.60;10.40;;;;;;;0.55;79.68;101014.97;4932619;28;20263;-73
2022/04/04 04:17:15;;;;;;;10.85;9.90;;;;;;;0.53;79.63;101010.72;4947468;28;20014;-72
2022/04/04 04:22:25;;;;;;;10.90;10.00;;;;;;;0.58;79.38;101008.75;4954601;28;20076;-70
2022/04/04 04:24:50;;;;;;;11.77;10.57;;;;;;;0.60;79.11;101002.56;4947188;28;20030;-70
2022/04/04 04:27:16;;;;;;;10.80;9.90;;;;;;;0.53;79.43;100995.94;4951415;28;20018;-73
2022/04/04 04:29:41;;;;;;;11.27;10.18;;;;;;;0.44;79.68;100989.38;4969690;28;20482;-71
2022/04/04 04:32:10;;;;;;;11.48;10.43;;;;;;;0.46;79.58;100984.09;4957807;28;20014;-70
2022/04/04 04:34:35;;;;;;;11.15;10.15;;;;;;;0.50;79.60;100980.44;4961696;28;20395;-71
2022/04/04 04:37:01;;;;;;;11.02;9.93;;;;;;;0.62;79.38;100976.47;4958852;28;20956;-72
2022/04/04 04:39:26;;;;;;;11.38;10.38;;;;;;;0.63;79.55;100985.97;4926226;28;20120;-71
2022/04/04 04:41:52;;;;;;;11.23;10.13;;;;;;;0.50;79.64;100983.06;4955255;28;20122;-70
2022/04/04 04:44:17;;;;;;;10.90;9.90;;;;;;;0.68;79.42;100976.22;4954139;28;20574;-70
2022/04/04 04:46:43;;;;;;;11.82;10.65;;;;;;;0.68;79.30;100969.22;4947874;28;20017;-70
2022/04/04 04:49:08;;;;;;;13.68;10.90;;;;;;;0.59;79.01;100967.03;4951598;28;20034;-70
2022/04/04 04:51:33;;;;;;;11.90;10.73;;;;;;;0.41;79.92;100965.22;4939533;28;20023;-68
2022/04/04 04:53:59;;;;;;;12.63;11.13;;;;;;;0.45;80.33;100953.75;4962115;28;20022;-72
2022/04/04 04:56:25;;;;;;;12.25;11.02;;;;;;;0.49;80.31;100957.94;4955516;28;20475;-69
2022/04/04 04:58:51;;;;;;;11.55;10.45;;;;;;;0.56;80.47;100946.31;4944811;28;20019;-70
2022/04/04 05:01:16;;;;;;;12.10;11.00;;;;;;;0.71;79.74;100946.59;4956210;28;20198;-71
2022/04/04 05:03:42;;;;;;;12.20;10.98;;;;;;;0.57;80.06;100941.97;4956051;28;20113;-69
2022/04/04 05:06:07;;;;;;;12.60;11.23;;;;;;;0.56;80.41;100938.50;4974005;28;20419;-71
2022/04/04 05:08:33;;;;;;;12.27;11.02;;;;;;;0.63;80.57;100939.94;4959676;28;20022;-71
2022/04/04 05:11:00;;;;;;;12.32;10.95;;;;;;;0.65;80.90;100943.31;4972280;28;20026;-71
2022/04/04 05:13:26;;;;;;;12.07;10.98;;;;;;;0.77;80.62;100935.88;4977549;28;20713;-71
2022/04/04 05:15:52;;;;;;;13.95;12.00;;;;;;;0.68;80.76;100927.56;4976616;28;20477;-71
2022/04/04 05:18:18;;;;;;;12.90;11.60;;;;;;;0.74;80.78;100931.66;4957897;28;20690;-70
2022/04/04 05:20:43;;;;;;;13.13;11.93;;;;;;;0.71;80.82;100923.16;4966556;28;20143;-71
2022/04/04 05:23:08;;;;;;;12.32;11.13;;;;;;;0.80;80.55;100922.72;4972003;28;20030;-70
2022/04/04 05:25:34;;;;;;;13.13;11.82;;;;;;;0.78;80.36;100922.78;4959491;28;20030;-71
2022/04/04 05:27:59;;;;;;;12.80;11.55;;;;;;;0.79;80.75;100914.06;4978341;28;20010;-70
2022/04/04 05:30:25;;;;;;;13.38;12.07;;;;;;;1.00;79.84;100920.06;4947113;28;20014;-71
2022/04/04 05:32:50;;;;;;;14.88;11.82;;;;;;;1.12;78.63;100913.41;4973169;28;20038;-71
2022/04/04 05:35:17;;;;;;;15.68;11.30;;;;;;;1.27;77.91;100911.84;4935736;28;20022;-71
2022/04/04 05:37:43;;;;;;;12.75;10.48;;;;;;;1.60;75.93;100916.34;4955398;28;20045;-71
2022/04/04 05:40:09;;;;;;;12.82;9.93;;;;;;;1.86;73.95;100916.81;4968059;28;20049;-72
2022/04/04 05:42:34;;;;;;;10.73;8.95;;;;;;;2.01;73.50;100905.63;4953243;28;20608;-73
2022/04/04 05:44:59;;;;;;;10.27;8.70;;;;;;;2.11;72.24;100905.16;4977630;28;20052;-73
2022/04/04 05:47:26;;;;;;;11.63;8.70;;;;;;;2.23;71.51;100901.94;4966344;28;20018;-70
2022/04/04 05:49:51;;;;;;;10.60;7.85;;;;;;;2.39;71.04;100900.19;4963120;28;20050;-73
2022/04/04 05:52:17;;;;;;;8.80;7.95;;;;;;;2.45;70.42;100904.25;4947274;28;20151;-73
2022/04/04 05:54:57;;;;;;;10.07;7.50;;;;;;;2.55;69.14;100895.03;4952275;28;20060;-73
2022/04/04 05:57:24;;;;;;;9.02;8.15;;;;;;;2.77;69.45;100898.25;4942431;28;20017;-73
2022/04/04 05:59:50;;;;;;;9.40;7.88;;;;;;;2.80;68.81;100892.84;4951384;28;20080;-73
2022/04/04 06:02:15;;;;;;;8.57;7.60;;;;;;;2.99;67.69;100888.31;4945369;28;20058;-73
2022/04/04 06:04:41;;;;;;;10.15;7.90;;;;;;;3.12;66.86;100888.47;4955592;28;21017;-72
2022/04/04 06:07:06;;;;;;;9.10;8.00;;;;;;;3.17;67.01;100883.81;4960944;28;20742;-70
2022/04/04 06:09:32;;;;;;;8.90;8.07;;;;;;;3.19;65.82;100875.91;4972803;28;20006;-72
2022/04/04 06:11:57;;;;;;;9.40;7.65;;;;;;;3.32;65.86;100879.50;4979116;28;20003;-71
2022/04/04 06:14:23;;;;;;;8.75;7.85;;;;;;;3.37;65.45;100874.88;4962804;28;20545;-73
2022/04/04 06:16:48;;;;;;;8.90;8.00;;;;;;;3.41;64.64;100878.13;4962874;28;20312;-73
2022/04/04 06:19:13;;;;;;;9.30;8.32;;;;;;;3.43;64.74;100871.91;4968359;28;20027;-73
2022/04/04 06:21:39;;;;;;;12.27;7.97;;;;;;;3.61;64.24;100871.78;4963867;28;20014;-71
2022/04/04 06:24:05;;;;;;;9.02;7.72;;;;;;;3.68;63.63;100865.25;4972549;28;20088;-69
2022/04/04 06:26:30;;;;;;;8.68;7.88;;;;;;;3.62;63.73;100860.38;4964965;28;20914;-73
2022/04/04 06:28:56;;;;;;;9.77;8.50;;;;;;;3.63;63.55;100853.38;4961965;28;20986;-70
2022/04/04 06:31:21;;;;;;;10.15;8.10;;;;;;;3.62;63.17;100860.38;4971315;28;20049;-72
2022/04/04 06:33:47;;;;;;;12.07;8.85;;;;;;;3.66;62.98;100851.41;4983049;28;21025;-74
2022/04/04 06:36:12;;;;;;;12.60;8.50;;;;;;;3.81;63.60;100841.81;4979316;28;20018;-71
2022/04/04 06:38:37;;;;;;;9.18;8.20;;;;;;;3.90;62.83;100840.44;4981176;28;20029;-73
2022/04/04 06:41:03;;;;;;;11.80;8.30;;;;;;;3.97;62.54;100838.31;4964325;28;20048;-71
2022/04/04 06:43:28;;;;;;;9.07;8.10;;;;;;;4.11;62.63;100830.44;4977238;28;20015;-72
2022/04/04 06:45:54;;;;;;;9.65;7.82;;;;;;;4.06;61.67;100822.88;4964122;28;20898;-69
2022/04/04 06:48:21;;;;;;;8.07;7.28;;;;;;;4.19;61.27;100817.72;4958741;28;20023;-73
2022/04/04 06:50:47;;;;;;;8.90;7.85;;;;;;;4.02;61.37;100821.38;4973237;28;20471;-71
2022/04/04 06:53:12;;;;;;;11.15;7.68;;;;;;;4.05;61.64;100812.50;4955374;28;20709;-69
2022/04/04 06:55:38;;;;;;;8.90;8.00;;;;;;;4.07;61.33;100808.00;4968086;28;20075;-72
2022/04/04 06:58:03;;;;;;;14.52;7.40;;;;;;;4.04;61.05;100795.94;4972374;28;20009;-72
2022/04/04 07:00:29;;;;;;;8.05;7.25;;;;;;;4.11;60.98;100806.88;4955099;28;20018;-72
2022/04/04 07:02:55;;;;;;;9.70;8.02;;;;;;;4.04;61.72;100801.16;4953557;28;20524;-72
2022/04/04 07:05:21;;;;;;;8.48;7.68;;;;;;;4.21;61.35;100794.06;4941731;28;20084;-70
2022/04/04 07:07:46;;;;;;;8.40;7.55;;;;;;;4.16;60.71;100789.13;4938457;28;20019;-73
2022/04/04 07:10:12;;;;;;;11.13;7.65;;;;;;;4.19;61.00;100786.31;4965437;28;20017;-70
2022/04/04 07:12:41;;;;;;;8.40;6.80;;;;;;;4.34;60.70;100783.66;4953347;28;20026;-72
2022/04/04 07:15:08;;;;;;;10.85;7.35;;;;;;;4.41;59.92;100774.47;4943535;28;20096;-71
2022/04/04 07:17:33;;;;;;;10.95;7.30;;;;;;;4.52;60.01;100779.88;4968519;28;20014;-73
2022/04/04 07:19:58;;;;;;;7.40;6.28;;;;;;;4.65;59.51;100772.09;4970702;28;20037;-70
2022/04/04 07:22:25;;;;;;;7.40;6.65;;;;;;;4.59;59.13;100762.84;4978706;28;20068;-73
2022/04/04 07:24:50;;;;;;;7.32;6.60;;;;;;;4.84;58.44;100766.50;4980790;28;20029;-73
2022/04/04 07:27:16;;;;;;;11.43;6.47;;;;;;;4.93;58.35;100755.41;4973343;28;20011;-72
2022/04/04 07:29:41;;;;;;;8.35;6.40;;;;;;;4.99;58.71;100746.31;4946427;28;20524;-73
2022/04/04 07:32:09;;;;;;;7.40;6.32;;;;;;;5.16;57.75;100751.28;4941892;28;20015;-71
2022/04/04 07:34:34;;;;;;;8.23;5.80;;;;;;;5.35;57.28;100747.44;4941464;28;20027;-73
2022/04/04 07:37:00;;;;;;;7.85;5.88;;;;;;;5.11;56.74;100750.75;4957174;28;20115;-74
2022/04/04 07:39:26;;;;;;;7.35;6.15;;;;;;;5.14;57.28;100733.97;4974189;28;20100;-72
2022/04/04 07:41:51;;;;;;;6.50;5.20;;;;;;;5.14;56.50;100731.34;4973086;28;20175;-74
2022/04/04 07:44:17;;;;;;;5.68;5.18;;;;;;;5.32;56.59;100724.03;4959207;28;20096;-73
2022/04/04 07:46:42;;;;;;;7.53;5.15;;;;;;;5.65;55.57;100731.41;4937879;28;20046;-73
2022/04/04 07:49:07;;;;;;;5.78;5.22;;;;;;;5.55;55.56;100725.09;4967514;28;20660;-74
2022/04/04 07:51:33;;;;;;;5.82;5.22;;;;;;;5.68;55.28;100719.84;4960531;28;20329;-74
2022/04/04 07:53:58;;;;;;;6.22;5.63;;;;;;;5.68;54.50;100719.84;4970967;28;20026;-73
2022/04/04 07:56:23;;;;;;;5.35;4.90;;;;;;;5.79;54.92;100717.31;4968962;28;20028;-73
2022/04/04 07:58:49;;;;;;;6.72;5.38;;;;;;;5.98;54.51;100695.88;4952510;28;20256;-73
2022/04/04 08:01:14;;;;;;;6.07;5.32;;;;;;;5.90;53.99;100713.09;4966540;28;20022;-71
2022/04/04 08:03:39;;;;;;;6.72;5.07;;;;;;;6.02;54.33;100696.50;4972904;28;20487;-73
2022/04/04 08:06:05;;;;;;;6.90;5.10;;;;;;;5.99;54.74;100697.59;4982206;28;20267;-70
2022/04/04 08:08:30;;;;;;;5.03;4.55;;;;;;;6.12;53.16;100686.19;4975625;28;20026;-73
2022/04/04 08:10:57;;;;;;;4.85;4.30;;;;;;;6.53;53.40;100685.00;4945276;28;20565;-74
2022/04/04 08:13:23;;;;;;;5.22;4.30;;;;;;;6.59;51.32;100688.97;4983152;28;20049;-71
2022/04/04 08:15:48;;;;;;;4.95;4.40;;;;;;;6.89;50.82;100683.22;4981623;28;20020;-72
2022/04/04 08:18:14;;;;;;;4.70;4.20;;;;;;;7.08;51.54;100689.72;4975582;28;20293;-69
2022/04/04 08:20:39;;;;;;;3.85;3.55;;;;;;;6.99;50.60;100675.47;4965354;28;20021;-72
2022/04/04 08:23:05;;;;;;;4.43;3.22;;;;;;;6.89;49.52;100670.06;4974325;28;20493;-72
2022/04/04 08:25:30;;;;;;;4.97;3.90;;;;;;;6.70;50.55;100670.63;4982529;28;20037;-71
2022/04/04 08:27:56;;;;;;;4.15;3.78;;;;;;;6.80;49.84;100674.22;4966143;28;20904;-74
2022/04/04 08:30:22;;;;;;;6.68;3.70;;;;;;;6.97;50.21;100661.63;4965143;28;20942;-72
2022/04/04 08:32:48;;;;;;;8.00;4.20;;;;;;;6.80;50.11;100653.19;4978307;28;20053;-72
2022/04/04 08:35:14;;;;;;;4.65;3.63;;;;;;;6.99;50.11;100654.44;4949935;28;20428;-72
2022/04/04 08:37:41;;;;;;;5.65;4.00;;;;;;;7.10;50.13;100649.19;4966492;28;20030;-70
2022/04/04 08:40:09;;;;;;;7.18;4.38;;;;;;;7.18;49.33;100654.72;4980690;28;20022;-73
2022/04/04 08:42:35;;;;;;;5.88;4.07;;;;;;;7.33;48.72;100660.63;4963562;28;20022;-72
2022/04/04 08:45:00;;;;;;;4.43;3.85;;;;;;;7.13;48.72;100664.75;4981570;28;20107;-72
2022/04/04 08:47:27;;;;;;;6.82;4.20;;;;;;;7.39;48.99;100639.06;4968683;28;20339;-72
2022/04/04 08:49:53;;;;;;;4.05;3.40;;;;;;;7.31;48.46;100630.09;4965400;28;20925;-72
2022/04/04 08:52:19;;;;;;;4.75;3.38;;;;;;;7.50;48.52;100630.34;4982161;28;20037;-71
2022/04/04 08:54:45;;;;;;;5.95;3.80;;;;;;;7.78;48.70;100630.78;4944170;28;20050;-70
2022/04/04 08:57:10;;;;;;;8.60;4.00;;;;;;;7.60;47.10;100617.31;4942247;28;20492;-73
2022/04/04 08:59:35;;;;;;;8.85;3.78;;;;;;;7.56;48.03;100606.16;4968420;28;20691;-70
2022/04/04 09:02:01;;;;;;;4.10;3.80;;;;;;;7.57;46.60;100641.22;4971661;28;20107;-74
2022/04/04 09:04:26;;;;;;;4.78;3.83;;;;;;;7.44;46.85;100609.75;4957285;28;20321;-73
2022/04/04 09:06:53;;;;;;;4.85;3.53;;;;;;;7.61;46.83;100610.22;4963748;28;20046;-74
2022/04/04 09:09:38;;;;;;;4.38;3.50;;;;;;;7.71;47.46;100606.75;4978114;28;20684;-75
2022/04/04 09:12:07;;;;;;;5.47;3.20;;;;;;;7.87;46.22;100602.91;4978474;28;20052;-73
2022/04/04 09:14:42;;;;;;;5.32;3.30;;;;;;;7.79;45.49;100590.31;4980060;28;20010;-73
2022/04/04 09:17:10;;;;;;;4.15;3.20;;;;;;;7.73;44.99;100588.19;4961213;28;20050;-72
2022/04/04 09:19:36;;;;;;;4.30;3.30;;;;;;;7.67;45.19;100575.50;4952064;28;20022;-74
2022/04/04 09:22:14;;;;;;;3.22;2.95;;;;;;;7.61;45.31;100576.00;4980756;28;20017;-73
2022/04/04 09:24:47;;;;;;;4.53;3.42;;;;;;;7.68;45.89;100561.38;4924922;28;20035;-73
2022/04/04 09:27:17;;;;;;;5.35;3.53;;;;;;;7.75;44.31;100578.34;4964764;28;20279;-72
2022/04/04 09:29:43;;;;;;;4.85;3.38;;;;;;;7.56;45.24;100558.75;4964394;28;20835;-73
2022/04/04 09:32:11;;;;;;;3.85;3.55;;;;;;;7.60;45.15;100553.25;4959319;28;20263;-72
2022/04/04 09:34:48;;;;;;;10.60;3.83;;;;;;;7.72;44.82;100547.00;4945965;28;20146;-70
2022/04/04 09:37:17;;;;;;;6.38;3.20;;;;;;;7.80;44.98;100551.63;4971511;28;20553;-73
2022/04/04 09:39:42;;;;;;;5.30;4.07;;;;;;;7.69;45.06;100540.19;4961045;28;20017;-72
2022/04/04 09:42:18;;;;;;;7.10;3.67;;;;;;;7.81;45.31;100526.97;4978074;28;20011;-72
2022/04/04 09:45:04;;;;;;;6.57;3.35;;;;;;;7.67;45.80;100528.94;4959602;28;20556;-71
2022/04/04 09:47:45;;;;;;;5.65;3.45;;;;;;;7.68;45.52;100524.50;4967857;28;20014;-74
2022/04/04 09:50:32;;;;;;;4.07;3.58;;;;;;;7.60;46.10;100521.66;4960340;28;20030;-73
2022/04/04 09:52:58;;;;;;;5.43;3.88;;;;;;;7.55;45.83;100511.50;4974189;28;20022;-73
2022/04/04 09:55:31;;;;;;;5.68;4.10;;;;;;;7.65;46.64;100514.22;4959889;28;20057;-73
2022/04/04 09:57:57;;;;;;;4.90;4.07;;;;;;;7.49;46.59;100504.91;4962319;28;20037;-71
2022/04/04 10:00:23;;;;;;;6.00;3.70;;;;;;;7.44;46.38;100499.16;4954462;28;20050;-74
2022/04/04 10:02:49;;;;;;;5.68;4.00;;;;;;;7.66;46.06;100498.28;4972078;28;20015;-72
2022/04/04 10:05:14;;;;;;;7.30;3.72;;;;;;;7.62;46.09;100503.94;4958400;28;20034;-71
2022/04/04 10:07:39;;;;;;;6.22;3.97;;;;;;;7.48;46.78;100508.50;4958449;28;20007;-72
2022/04/04 10:10:05;;;;;;;5.80;4.10;;;;;;;7.30;47.38;100504.69;4960015;28;20053;-70
2022/04/04 10:12:34;;;;;;;3.97;3.60;;;;;;;7.04;48.17;100486.56;4975342;28;20122;-72
2022/04/04 10:15:00;;;;;;;5.45;4.05;;;;;;;7.02;48.67;100489.31;4977821;28;20050;-72
2022/04/04 10:17:26;;;;;;;4.32;4.03;;;;;;;6.98;48.29;100511.53;4958487;28;20075;-73
2022/04/04 10:19:51;;;;;;;7.45;4.30;;;;;;;7.07;48.79;100482.84;4947697;28;20210;-71
2022/04/04 10:22:17;;;;;;;7.32;4.38;;;;;;;7.25;48.89;100485.81;4947878;28;20014;-73
2022/04/04 10:24:42;;;;;;;7.13;4.03;;;;;;;7.30;48.94;100476.56;4957579;28;20958;-70
2022/04/04 10:27:12;;;;;;;4.38;4.00;;;;;;;7.26;50.01;100487.47;4938851;28;20026;-72
2022/04/04 10:29:38;;;;;;;6.65;4.72;;;;;;;7.08;49.63;100484.50;4968963;28;20054;-72
2022/04/04 10:32:05;;;;;;;4.78;4.38;;;;;;;7.03;50.07;100484.88;4954979;28;20007;-73
2022/04/04 10:34:30;;;;;;;9.43;4.57;;;;;;;7.08;50.16;100458.19;4925838;28;20332;-73
2022/04/04 10:37:07;;;;;;;5.55;4.90;;;;;;;7.13;50.12;100472.66;4940478;28;20038;-72
2022/04/04 10:39:47;;;;;;;11.82;5.10;;;;;;;7.11;50.96;100468.50;4944908;28;20013;-71
2022/04/04 10:42:43;;;;;;;6.45;4.47;;;;;;;7.15;50.34;100448.84;4958974;28;20506;-74
2022/04/04 10:45:09;;;;;;;7.55;4.70;;;;;;;7.09;50.58;100471.22;4945526;28;20834;-74
2022/04/04 10:47:37;;;;;;;5.32;4.63;;;;;;;6.97;51.12;100465.16;4958747;28;20961;-73
2022/04/04 10:50:20;;;;;;;5.28;4.78;;;;;;;6.78;52.80;100452.59;4952016;28;20023;-71
2022/04/04 10:52:46;;;;;;;4.85;4.47;;;;;;;6.76;53.47;100454.50;4956799;28;20030;-71
2022/04/04 10:55:27;;;;;;;5.68;4.45;;;;;;;6.69;55.22;100440.16;4960007;28;20037;-73
2022/04/04 10:57:58;;;;;;;5.65;4.53;;;;;;;6.67;55.08;100455.19;4971986;28;20007;-73
2022/04/04 11:00:33;;;;;;;9.50;5.50;;;;;;;6.73;55.27;100454.75;4960384;28;20022;-73
2022/04/04 11:03:00;;;;;;;6.25;4.93;;;;;;;6.72;54.26;100436.47;4939435;28;20137;-73
2022/04/04 11:08:09;;;;;;;;;;;;;;;6.71;53.37;100425.09;4988665;28;20022;-72
2022/04/04 11:10:41;;;;;;;5.80;5.30;;;;;;;6.65;53.09;100441.34;4968766;28;20386;-72
2022/04/04 11:13:09;;;;;;;5.50;4.80;;;;;;;6.67;52.78;100418.41;4979741;28;20064;-72
2022/04/04 11:15:45;;;;;;;7.65;4.90;;;;;;;6.73;52.08;100420.56;4964561;28;20793;-73
2022/04/04 11:18:12;;;;;;;7.55;5.05;;;;;;;6.79;51.44;100420.06;4964539;28;20230;-71
2022/04/04 11:20:46;;;;;;;8.35;4.75;;;;;;;6.85;51.24;100405.59;4971208;28;20022;-72
2022/04/04 11:23:12;;;;;;;9.93;5.07;;;;;;;6.87;51.44;100428.19;4963001;28;20018;-72
2022/04/04 11:25:48;;;;;;;9.13;4.40;;;;;;;6.80;50.77;100411.22;4943020;28;20044;-74
2022/04/04 11:28:15;;;;;;;8.27;4.32;;;;;;;6.79;51.81;100424.50;4966713;28;20022;-69
2022/04/04 11:30:40;;;;;;;5.43;4.30;;;;;;;6.68;53.83;100449.00;4962780;28;20018;-72
2022/04/04 11:33:11;;;;;;;5.10;4.70;;;;;;;6.62;56.97;100418.75;4976871;28;20513;-72